createdAt,value
2019-02-25T00:00:31.544Z,65.43
2019-02-25T00:03:00.868Z,62.90
2019-02-25T00:05:30.540Z,59.27
2019-02-25T00:07:59.812Z,72.50
2019-02-25T00:10:29.188Z,56.47
2019-02-25T00:12:58.488Z,65.30
2019-02-25T00:15:27.728Z,57.97
2019-02-25T00:17:57.068Z,76.93
2019-02-25T00:20:26.420Z,69.40
2019-02-25T00:22:55.713Z,67.00
2019-02-25T00:25:25.020Z,74.10
2019-02-25T00:27:54.264Z,74.67
2019-02-25T00:30:24.168Z,61.33
2019-02-25T00:32:53.560Z,71.20
2019-02-25T00:35:22.914Z,48.97
2019-02-25T00:37:52.224Z,43.97
2019-02-25T00:40:21.484Z,34.40
2019-02-25T00:42:50.740Z,33.60
2019-02-25T00:45:20.056Z,36.47
2019-02-25T00:47:49.311Z,36.50
2019-02-25T00:50:18.580Z,38.07
2019-02-25T00:52:47.863Z,40.90
2019-02-25T00:55:17.139Z,44.30
2019-02-25T00:57:46.677Z,47.43
2019-02-25T01:00:17.212Z,54.83
2019-02-25T01:02:46.455Z,63.67
2019-02-25T01:05:16.069Z,50.10
2019-02-25T01:07:45.459Z,70.93
2019-02-25T01:10:14.944Z,64.73
2019-02-25T01:12:44.763Z,57.93
2019-02-25T01:15:14.450Z,57.27
2019-02-25T01:17:44.011Z,54.10
2019-02-25T01:20:13.587Z,58.70
2019-02-25T01:22:42.966Z,64.83
2019-02-25T01:25:13.195Z,64.10
2019-02-25T01:27:42.455Z,61.20
2019-02-25T01:30:13.387Z,65.03
2019-02-25T01:32:42.659Z,64.57
2019-02-25T01:35:12.315Z,64.13
2019-02-25T01:37:41.616Z,57.80
2019-02-25T01:40:11.023Z,65.77
2019-02-25T01:42:40.295Z,63.63
2019-02-25T01:45:10.923Z,54.63
2019-02-25T01:47:40.255Z,49.37
2019-02-25T01:50:10.029Z,52.83
2019-02-25T01:52:39.375Z,57.83
2019-02-25T01:55:09.102Z,54.20
2019-02-25T01:57:38.390Z,47.67
2019-02-25T02:00:10.586Z,45.77
2019-02-25T02:02:39.898Z,44.93
2019-02-25T02:05:09.162Z,54.13
2019-02-25T02:07:38.426Z,51.03
2019-02-25T02:10:09.238Z,49.13
2019-02-25T02:12:38.486Z,58.37
2019-02-25T02:15:13.242Z,55.33
2019-02-25T02:17:42.531Z,53.20
2019-02-25T02:20:13.307Z,52.63
2019-02-25T02:22:42.643Z,48.07
2019-02-25T02:25:11.975Z,39.00
2019-02-25T02:27:41.908Z,34.80
2019-02-25T02:30:14.314Z,47.50
2019-02-25T02:32:43.554Z,47.70
2019-02-25T02:35:12.822Z,34.97
2019-02-25T02:37:42.117Z,37.70
2019-02-25T02:40:12.167Z,33.63
2019-02-25T02:42:42.999Z,30.13
2019-02-25T02:45:15.887Z,35.67
2019-02-25T02:48:15.827Z,39.67
2019-02-25T02:50:45.182Z,33.17
2019-02-25T02:53:14.555Z,34.53
2019-02-25T02:55:43.877Z,32.23
2019-02-25T02:58:13.149Z,32.27
2019-02-25T03:00:42.433Z,28.37
2019-02-25T03:03:11.679Z,35.80
2019-02-25T03:05:41.059Z,26.23
2019-02-25T03:08:10.385Z,31.47
2019-02-25T03:10:39.738Z,28.47
2019-02-25T03:13:09.043Z,34.93
2019-02-25T03:15:38.328Z,31.60
2019-02-25T03:18:07.735Z,30.17
2019-02-25T03:20:37.154Z,42.63
2019-02-25T03:23:06.489Z,44.83
2019-02-25T03:25:35.831Z,45.03
2019-02-25T03:28:05.130Z,41.33
2019-02-25T03:30:34.398Z,42.40
2019-02-25T03:33:04.005Z,38.33
2019-02-25T03:35:33.291Z,35.90
2019-02-25T03:38:02.559Z,33.63
2019-02-25T03:40:31.896Z,31.50
2019-02-25T03:43:01.210Z,30.27
2019-02-25T03:45:30.536Z,41.50
2019-02-25T03:47:59.820Z,28.07
2019-02-25T03:50:29.161Z,42.33
2019-02-25T03:52:58.469Z,37.40
2019-02-25T03:55:27.760Z,29.73
2019-02-25T03:57:57.152Z,39.17
2019-02-25T04:00:26.437Z,32.43
2019-02-25T04:02:56.097Z,28.87
2019-02-25T04:05:25.383Z,35.07
2019-02-25T04:07:54.677Z,39.73
2019-02-25T04:10:23.993Z,41.00
2019-02-25T04:12:53.336Z,34.10
2019-02-25T04:15:25.353Z,44.20
2019-02-25T04:17:54.633Z,41.47
2019-02-25T04:20:24.048Z,38.90
2019-02-25T04:22:53.323Z,32.37
2019-02-25T04:25:22.603Z,34.27
2019-02-25T04:27:51.827Z,35.10
2019-02-25T04:30:21.199Z,26.60
2019-02-25T04:32:50.475Z,34.73
2019-02-25T04:35:19.747Z,39.83
2019-02-25T04:37:49.022Z,45.73
2019-02-25T04:40:18.582Z,51.47
2019-02-25T04:42:47.859Z,48.90
2019-02-25T04:45:17.755Z,48.97
2019-02-25T04:47:47.174Z,53.83
2019-02-25T04:50:16.538Z,54.10
2019-02-25T04:52:45.766Z,37.97
2019-02-25T04:55:15.243Z,48.33
2019-02-25T04:57:44.523Z,44.00
2019-02-25T05:00:15.574Z,58.03
2019-02-25T05:05:23.065Z,53.70
2019-02-25T05:07:52.329Z,62.53
2019-02-25T05:10:21.699Z,63.47
2019-02-25T05:13:02.677Z,72.93
2019-02-25T05:15:32.393Z,61.13
2019-02-25T05:18:01.759Z,67.33
2019-02-25T05:20:31.106Z,62.40
2019-02-25T05:23:00.450Z,68.00
2019-02-25T05:25:29.673Z,66.40
2019-02-25T05:27:58.944Z,62.93
2019-02-25T05:30:28.232Z,63.80
2019-02-25T05:32:57.513Z,66.63
2019-02-25T05:35:26.797Z,65.20
2019-02-25T05:37:56.056Z,75.43
2019-02-25T05:40:25.318Z,69.97
2019-02-25T05:42:54.596Z,64.37
2019-02-25T05:45:23.857Z,61.40
2019-02-25T05:47:53.193Z,62.90
2019-02-25T05:50:23.091Z,64.63
2019-02-25T05:52:52.442Z,65.07
2019-02-25T05:55:21.676Z,67.53
2019-02-25T05:57:50.998Z,73.87
2019-02-25T06:00:22.391Z,68.67
2019-02-25T06:02:53.235Z,69.30
2019-02-25T06:05:22.661Z,69.17
2019-02-25T06:07:51.950Z,73.37
2019-02-25T06:10:21.206Z,79.13
2019-02-25T06:12:50.541Z,79.47
2019-02-25T06:15:20.195Z,73.67
2019-02-25T06:17:49.496Z,72.77
2019-02-25T06:20:18.725Z,71.83
2019-02-25T06:22:47.934Z,84.27
2019-02-25T06:25:17.189Z,75.50
2019-02-25T06:27:46.569Z,66.70
2019-02-25T06:30:16.848Z,78.20
2019-02-25T06:32:46.149Z,65.63
2019-02-25T06:35:15.410Z,83.50
2019-02-25T06:37:44.717Z,79.07
2019-02-25T06:40:15.757Z,75.57
2019-02-25T06:42:45.229Z,75.00
2019-02-25T06:45:16.273Z,70.10
2019-02-25T06:47:46.377Z,76.53
2019-02-25T06:50:15.740Z,72.00
2019-02-25T06:52:45.435Z,72.70
2019-02-25T06:55:15.420Z,70.03
2019-02-25T06:57:44.678Z,74.27
2019-02-25T07:00:18.112Z,65.73
2019-02-25T07:02:47.445Z,62.97
2019-02-25T07:05:35.937Z,68.30
2019-02-25T07:08:30.296Z,65.03
2019-02-25T07:11:27.773Z,68.70
2019-02-25T07:14:15.187Z,72.77
2019-02-25T07:17:00.844Z,68.53
2019-02-25T07:19:39.088Z,66.57
2019-02-25T07:22:25.368Z,73.50
2019-02-25T07:25:09.204Z,74.63
2019-02-25T07:27:56.278Z,80.20
2019-02-25T07:30:47.205Z,70.80
2019-02-25T07:33:40.661Z,80.57
2019-02-25T07:36:27.568Z,70.03
2019-02-25T07:39:14.716Z,75.37
2019-02-25T07:42:03.063Z,71.13
2019-02-25T07:44:54.247Z,63.50
2019-02-25T07:47:57.627Z,79.50
2019-02-25T07:51:04.423Z,67.27
2019-02-25T07:53:58.699Z,65.23
2019-02-25T07:56:45.804Z,70.00
2019-02-25T07:59:32.455Z,64.77
2019-02-25T08:02:13.939Z,68.90
2019-02-25T08:05:05.099Z,64.43
2019-02-25T08:07:53.464Z,69.00
2019-02-25T08:10:37.992Z,69.23
2019-02-25T08:13:15.431Z,77.40
2019-02-25T08:15:56.811Z,59.73
2019-02-25T08:18:38.050Z,67.13
2019-02-25T08:21:35.463Z,73.07
2019-02-25T08:24:39.180Z,75.97
2019-02-25T08:27:26.347Z,60.13
2019-02-25T08:30:13.190Z,71.97
2019-02-25T08:32:55.399Z,66.97
2019-02-25T08:36:20.718Z,60.57
2019-02-25T08:39:08.825Z,99.47
2019-02-25T08:41:46.854Z,60.67
2019-02-25T08:44:35.138Z,61.57
2019-02-25T08:47:12.158Z,64.40
2019-02-25T08:49:47.470Z,67.03
2019-02-25T08:52:16.706Z,70.57
2019-02-25T08:54:45.996Z,70.07
2019-02-25T08:57:15.246Z,79.67
2019-02-25T08:59:44.880Z,59.70
2019-02-25T09:02:14.142Z,79.47
2019-02-25T09:04:43.423Z,62.73
2019-02-25T09:07:12.798Z,75.03
2019-02-25T09:09:42.093Z,78.77
2019-02-25T09:12:11.366Z,65.17
2019-02-25T09:14:40.700Z,76.70
2019-02-25T09:17:09.891Z,69.80
2019-02-25T09:19:39.207Z,67.63
2019-02-25T09:22:08.486Z,78.63
2019-02-25T09:24:37.797Z,71.17
2019-02-25T09:27:07.040Z,70.40
2019-02-25T09:29:36.322Z,71.77
2019-02-25T09:32:05.639Z,68.63
2019-02-25T09:34:34.957Z,67.10
2019-02-25T09:37:04.218Z,71.37
2019-02-25T09:39:33.510Z,67.67
2019-02-25T09:42:02.858Z,69.30
2019-02-25T09:44:32.141Z,72.87
2019-02-25T09:47:01.530Z,70.83
2019-02-25T09:49:30.826Z,71.77
2019-02-25T09:52:00.161Z,68.87
2019-02-25T09:54:29.442Z,61.40
2019-02-25T09:56:58.686Z,69.50
2019-02-25T09:59:28.353Z,64.57
2019-02-25T10:01:57.642Z,71.47
2019-02-25T10:04:28.770Z,70.07
2019-02-25T10:07:02.285Z,67.00
2019-02-25T10:09:30.044Z,66.57
2019-02-25T10:11:59.962Z,63.90
2019-02-25T10:14:29.217Z,61.07
2019-02-25T10:16:58.534Z,62.20
2019-02-25T10:19:27.770Z,75.47
2019-02-25T10:21:57.895Z,92.53
2019-02-25T10:24:27.155Z,59.47
2019-02-25T10:26:56.442Z,64.13
2019-02-25T10:29:25.705Z,61.63
2019-02-25T10:31:55.217Z,59.13
2019-02-25T10:34:24.525Z,65.77
2019-02-25T10:36:53.820Z,59.00
2019-02-25T10:39:23.066Z,56.00
2019-02-25T10:41:53.295Z,55.57
2019-02-25T10:44:23.337Z,55.37
2019-02-25T10:46:52.595Z,53.73
2019-02-25T10:49:22.564Z,58.33
2019-02-25T10:51:52.787Z,55.53
2019-02-25T10:54:23.290Z,56.83
2019-02-25T10:56:57.852Z,49.63
2019-02-25T10:59:27.232Z,51.97
2019-02-25T11:01:56.510Z,53.27
2019-02-25T11:04:26.276Z,58.07
2019-02-25T11:06:55.622Z,45.13
2019-02-25T11:10:02.515Z,52.07
2019-02-25T11:12:32.184Z,52.10
2019-02-25T11:15:01.602Z,46.00
2019-02-25T11:17:31.450Z,45.20
2019-02-25T11:20:03.066Z,50.83
2019-02-25T11:22:31.586Z,43.13
2019-02-25T11:25:00.893Z,65.90
2019-02-25T11:27:31.343Z,49.63
2019-02-25T11:30:01.162Z,48.73
2019-02-25T11:32:30.462Z,52.50
2019-02-25T11:35:01.293Z,50.30
2019-02-25T11:37:30.806Z,57.93
2019-02-25T11:40:01.853Z,141.60
2019-02-25T11:42:31.114Z,39.27
2019-02-25T11:45:02.413Z,36.63
2019-02-25T11:47:31.326Z,41.67
2019-02-25T11:50:00.577Z,35.10
2019-02-25T11:52:29.845Z,42.27
2019-02-25T11:54:59.390Z,37.37
2019-02-25T11:57:28.673Z,39.83
2019-02-25T11:59:58.054Z,40.13
2019-02-25T12:02:27.386Z,34.73
2019-02-25T12:04:56.666Z,40.13
2019-02-25T12:07:26.022Z,35.80
2019-02-25T12:09:55.362Z,36.37
2019-02-25T12:12:24.707Z,31.20
2019-02-25T12:14:53.985Z,30.13
2019-02-25T12:17:23.295Z,30.43
2019-02-25T12:19:52.545Z,26.83
2019-02-25T12:22:22.500Z,25.10
2019-02-25T12:24:51.749Z,28.07
2019-02-25T12:27:21.061Z,28.17
2019-02-25T12:29:50.361Z,24.10
2019-02-25T12:32:19.633Z,28.17
2019-02-25T12:34:48.893Z,25.57
2019-02-25T12:37:18.177Z,27.23
2019-02-25T12:39:47.449Z,25.37
2019-02-25T12:42:16.885Z,26.60
2019-02-25T12:44:46.192Z,30.77
2019-02-25T12:47:15.452Z,28.00
2019-02-25T12:49:44.717Z,30.87
2019-02-25T12:52:13.988Z,26.20
2019-02-25T12:54:43.298Z,26.80
2019-02-25T12:57:12.617Z,28.60
2019-02-25T12:59:41.832Z,27.93
2019-02-25T13:02:11.112Z,28.60
2019-02-25T13:04:40.452Z,28.67
2019-02-25T13:07:09.769Z,25.87
2019-02-25T13:09:39.133Z,25.97
2019-02-25T13:12:08.406Z,21.73
2019-02-25T13:14:37.688Z,26.07
2019-02-25T13:17:06.964Z,24.80
2019-02-25T13:19:36.244Z,23.63
2019-02-25T13:22:05.503Z,20.90
2019-02-25T13:24:37.312Z,21.17
2019-02-25T13:27:08.415Z,22.57
2019-02-25T13:29:37.571Z,23.17
2019-02-25T13:32:06.875Z,23.37
2019-02-25T13:34:36.241Z,20.37
2019-02-25T13:37:05.804Z,24.87
2019-02-25T13:39:36.600Z,24.90
2019-02-25T13:42:05.892Z,24.20
2019-02-25T13:44:35.152Z,21.70
2019-02-25T13:47:04.438Z,21.77
2019-02-25T13:49:33.714Z,21.07
2019-02-25T13:52:03.128Z,24.27
2019-02-25T13:54:32.896Z,26.93
2019-02-25T13:57:02.603Z,24.33
2019-02-25T13:59:31.896Z,26.07
2019-02-25T14:02:01.133Z,25.73
2019-02-25T14:04:30.435Z,21.40
2019-02-25T14:06:59.678Z,26.00
2019-02-25T14:09:28.964Z,19.93
2019-02-25T14:11:58.491Z,19.23
2019-02-25T14:14:27.776Z,20.90
2019-02-25T14:16:57.090Z,24.00
2019-02-25T14:19:26.377Z,18.97
2019-02-25T14:21:56.112Z,100.90
2019-02-25T14:24:25.447Z,29.57
2019-02-25T14:26:54.705Z,19.30
2019-02-25T14:29:26.257Z,18.83
2019-02-25T14:31:54.908Z,14.70
2019-02-25T14:34:24.244Z,26.80
2019-02-25T14:36:54.936Z,13.40
2019-02-25T14:39:28.113Z,14.70
2019-02-25T14:41:58.714Z,13.77
2019-02-25T14:44:31.999Z,15.77
2019-02-25T14:46:58.686Z,16.53
2019-02-25T14:49:30.152Z,15.87
2019-02-25T14:52:00.079Z,20.50
2019-02-25T14:54:31.759Z,25.83
2019-02-25T14:57:00.367Z,20.40
2019-02-25T14:59:30.803Z,16.40
2019-02-25T15:02:02.153Z,18.27
2019-02-25T15:04:32.601Z,19.60
2019-02-25T15:07:03.753Z,16.63
2019-02-25T15:09:34.847Z,16.53
2019-02-25T15:12:06.407Z,18.17
2019-02-25T15:14:35.374Z,18.60
2019-02-25T15:17:06.054Z,14.57
2019-02-25T15:19:36.529Z,19.77
2019-02-25T15:22:06.418Z,15.70
2019-02-25T15:24:36.025Z,15.30
2019-02-25T15:27:07.229Z,16.83
2019-02-25T15:29:39.211Z,14.83
2019-02-25T15:32:08.155Z,16.80
2019-02-25T15:34:37.696Z,20.73
2019-02-25T15:37:07.661Z,26.20
2019-02-25T15:39:41.786Z,21.27
2019-02-25T15:42:08.953Z,27.20
2019-02-25T15:44:40.362Z,22.80
2019-02-25T15:47:10.821Z,28.87
2019-02-25T15:49:40.337Z,18.93
2019-02-25T15:52:10.585Z,30.40
2019-02-25T15:54:41.408Z,22.20
2019-02-25T15:57:11.142Z,19.30
2019-02-25T15:59:40.475Z,35.60
2019-02-25T16:02:13.499Z,18.33
2019-02-25T16:04:42.365Z,57.07
2019-02-25T16:07:11.997Z,31.47
2019-02-25T16:09:41.272Z,30.87
2019-02-25T16:12:10.717Z,111.83
2019-02-25T16:14:41.870Z,65.87
2019-02-25T16:17:11.109Z,62.07
2019-02-25T16:19:47.141Z,33.60
2019-02-25T16:22:11.859Z,72.07
2019-02-25T16:24:41.152Z,26.37
2019-02-25T16:27:11.509Z,20.53
2019-02-25T16:29:40.748Z,24.70
2019-02-25T16:32:10.313Z,22.30
2019-02-25T16:34:40.549Z,29.77
2019-02-25T16:37:12.154Z,26.07
2019-02-25T16:39:41.562Z,35.10
2019-02-25T16:42:10.805Z,28.47
2019-02-25T16:44:40.091Z,22.30
2019-02-25T16:47:09.765Z,22.90
2019-02-25T16:49:40.301Z,19.67
2019-02-25T16:52:09.657Z,19.27
2019-02-25T16:54:38.884Z,100.80
2019-02-25T16:57:08.155Z,245.97
2019-02-25T16:59:37.458Z,69.27
2019-02-25T17:02:08.914Z,38.83
2019-02-25T17:04:37.816Z,37.37
2019-02-25T17:07:07.143Z,33.30
2019-02-25T17:09:38.638Z,41.97
2019-02-25T17:12:08.887Z,30.53
2019-02-25T17:14:40.459Z,35.73
2019-02-25T17:17:09.679Z,40.33
2019-02-25T17:19:39.083Z,47.40
2019-02-25T17:22:08.383Z,43.37
2019-02-25T17:24:39.249Z,33.83
2019-02-25T17:27:09.862Z,24.90
2019-02-25T17:29:40.124Z,23.47
2019-02-25T17:32:10.112Z,21.27
2019-02-25T17:34:40.145Z,20.57
2019-02-25T17:37:12.483Z,23.03
2019-02-25T17:39:41.521Z,22.97
2019-02-25T17:42:11.400Z,16.43
2019-02-25T17:44:41.012Z,19.87
2019-02-25T17:47:11.093Z,16.57
2019-02-25T17:49:42.845Z,12.70
2019-02-25T17:52:14.202Z,15.60
2019-02-25T17:54:43.747Z,10.70
2019-02-25T17:57:14.234Z,12.60
2019-02-25T17:59:44.099Z,17.03
2019-02-25T18:02:14.726Z,19.47
2019-02-25T18:04:44.019Z,20.17
2019-02-25T18:07:13.333Z,14.93
2019-02-25T18:09:44.447Z,15.00
2019-02-25T18:12:13.830Z,14.83
2019-02-25T18:14:44.863Z,16.33
2019-02-25T18:17:16.868Z,13.57
2019-02-25T18:19:45.716Z,13.97
2019-02-25T18:22:17.242Z,15.60
2019-02-25T18:24:46.774Z,16.27
2019-02-25T18:27:16.498Z,10.97
2019-02-25T18:29:46.285Z,16.27
2019-02-25T18:32:16.774Z,18.30
2019-02-25T18:34:46.357Z,13.07
2019-02-25T18:37:17.564Z,14.30
2019-02-25T18:39:47.873Z,13.20
2019-02-25T18:42:18.517Z,14.27
2019-02-25T18:44:49.594Z,12.60
2019-02-25T18:47:20.734Z,18.13
2019-02-25T18:49:52.114Z,22.23
2019-02-25T18:52:22.127Z,18.70
2019-02-25T18:54:51.424Z,19.30
2019-02-25T18:57:21.461Z,15.87
2019-02-25T18:59:51.619Z,19.40
2019-02-25T19:02:21.238Z,29.67
2019-02-25T19:04:50.482Z,60.37
2019-02-25T19:07:20.036Z,50.67
2019-02-25T19:09:51.463Z,73.47
2019-02-25T19:12:20.349Z,119.57
2019-02-25T19:14:52.973Z,50.97
2019-02-25T19:17:21.059Z,54.93
2019-02-25T19:19:51.657Z,61.90
2019-02-25T19:22:22.202Z,65.97
2019-02-25T19:24:52.375Z,65.90
2019-02-25T19:27:21.633Z,50.43
2019-02-25T19:29:51.534Z,56.03
2019-02-25T19:32:23.030Z,66.93
2019-02-25T19:34:54.102Z,128.63
2019-02-25T19:37:23.825Z,99.70
2019-02-25T19:39:53.227Z,168.20
2019-02-25T19:42:24.568Z,61.33
2019-02-25T19:44:53.537Z,82.27
2019-02-25T19:47:22.843Z,67.60
2019-02-25T19:49:52.134Z,93.70
2019-02-25T19:52:21.729Z,53.40
2019-02-25T19:54:51.020Z,66.50
2019-02-25T19:57:21.677Z,61.03
2019-02-25T19:59:52.981Z,196.70
2019-02-25T20:02:22.586Z,147.23
2019-02-25T20:04:53.270Z,105.20
2019-02-25T20:07:25.893Z,108.03
2019-02-25T20:09:55.274Z,136.73
2019-02-25T20:12:24.532Z,118.30
2019-02-25T20:14:53.853Z,126.50
2019-02-25T20:17:27.745Z,128.37
2019-02-25T20:19:54.425Z,87.70
2019-02-25T20:22:23.682Z,40.13
2019-02-25T20:24:55.070Z,44.40
2019-02-25T20:27:23.994Z,45.57
2019-02-25T20:29:53.345Z,92.03
2019-02-25T20:32:24.669Z,106.47
2019-02-25T20:34:55.042Z,106.23
2019-02-25T20:37:25.583Z,46.13
2019-02-25T20:39:56.045Z,52.60
2019-02-25T20:42:26.219Z,67.73
2019-02-25T20:44:57.556Z,79.87
2019-02-25T20:47:28.632Z,91.87
2019-02-25T20:49:58.249Z,98.53
2019-02-25T20:52:28.856Z,81.87
2019-02-25T20:54:58.105Z,91.80
2019-02-25T20:57:45.988Z,75.57
2019-02-25T21:00:17.816Z,77.57
2019-02-25T21:02:47.751Z,83.73
2019-02-25T21:05:19.507Z,89.43
2019-02-25T21:07:48.604Z,85.03
2019-02-25T21:10:19.875Z,81.80
2019-02-25T21:12:50.263Z,75.70
2019-02-25T21:15:20.347Z,68.27
2019-02-25T21:17:49.624Z,60.97
2019-02-25T21:20:19.652Z,55.30
2019-02-25T21:22:52.454Z,55.93
2019-02-25T21:25:24.444Z,69.30
2019-02-25T21:27:55.140Z,73.73
2019-02-25T21:30:22.671Z,74.17
2019-02-25T21:32:53.889Z,98.33
2019-02-25T21:35:25.501Z,99.07
2019-02-25T21:37:54.632Z,73.57
2019-02-25T21:40:25.055Z,71.30
2019-02-25T21:42:56.723Z,76.50
2019-02-25T21:45:27.526Z,78.10
2019-02-25T21:47:59.082Z,72.20
2019-02-25T21:50:30.676Z,54.00
2019-02-25T21:52:58.879Z,49.50
2019-02-25T21:55:30.399Z,50.47
2019-02-25T21:58:02.084Z,49.77
2019-02-25T22:00:32.897Z,107.00
2019-02-25T22:03:01.134Z,58.23
2019-02-25T22:05:30.582Z,54.50
2019-02-25T22:08:01.911Z,50.97
2019-02-25T22:10:34.152Z,64.40
2019-02-25T22:13:04.350Z,63.97
2019-02-25T22:15:34.055Z,75.93
2019-02-25T22:18:04.293Z,84.07
2019-02-25T22:20:37.627Z,90.87
2019-02-25T22:23:07.546Z,100.00
2019-02-25T22:25:36.609Z,80.80
2019-02-25T22:28:07.591Z,79.57
2019-02-25T22:30:37.014Z,86.30
2019-02-25T22:33:07.887Z,74.17
2019-02-25T22:35:39.604Z,81.17
2019-02-25T22:38:08.209Z,73.83
2019-02-25T22:40:38.995Z,69.27
2019-02-25T22:43:10.035Z,73.50
2019-02-25T22:45:41.893Z,68.93
2019-02-25T22:48:13.562Z,80.53
2019-02-25T22:50:42.653Z,82.83
2019-02-25T22:53:12.007Z,87.00
2019-02-25T22:55:44.391Z,72.37
2019-02-25T22:58:13.319Z,65.97
2019-02-25T23:00:47.453Z,75.47
2019-02-25T23:03:18.502Z,82.53
2019-02-25T23:05:48.763Z,96.43
2019-02-25T23:08:20.863Z,109.73
2019-02-25T23:10:51.764Z,102.03
2019-02-25T23:13:22.645Z,131.10
2019-02-25T23:15:53.520Z,156.00
2019-02-25T23:18:25.078Z,193.93
2019-02-25T23:20:56.989Z,160.93
2019-02-25T23:23:26.423Z,120.63
2019-02-25T23:25:56.671Z,82.57
2019-02-25T23:28:28.558Z,52.60
2019-02-25T23:30:57.668Z,36.10
2019-02-25T23:33:26.962Z,40.77
2019-02-25T23:35:56.226Z,38.17
2019-02-25T23:38:25.502Z,30.80
2019-02-25T23:40:54.798Z,30.97
2019-02-25T23:43:24.011Z,29.17
2019-02-25T23:45:53.322Z,29.93
2019-02-25T23:48:26.405Z,37.40
2019-02-25T23:50:55.546Z,38.97
2019-02-25T23:53:26.620Z,33.93
2019-02-25T23:55:56.500Z,32.87
2019-02-25T23:58:26.426Z,29.47
